sensor_id;sensor_type;location;lat;lon;timestamp;pressure;altitude;pressure_sealevel;temperature;humidity
49709;BME280;35601;55.902;13.606;2023-02-28T00:02:11;102315.97;;;-2.86;73.58
49709;BME280;35601;55.902;13.606;2023-02-28T00:04:36;102315.98;;;-2.82;73.15
49709;BME280;35601;55.902;13.606;2023-02-28T00:07:02;102315.83;;;-2.86;72.91
49709;BME280;35601;55.902;13.606;2023-02-28T00:09:27;102315.46;;;-2.81;72.69
49709;BME280;35601;55.902;13.606;2023-02-28T00:11:53;102314.50;;;-2.83;72.50
49709;BME280;35601;55.902;13.606;2023-02-28T00:14:18;102316.07;;;-2.85;72.53
49709;BME280;35601;55.902;13.606;2023-02-28T00:16:44;102315.98;;;-2.91;72.73
49709;BME280;35601;55.902;13.606;2023-02-28T00:19:09;102316.74;;;-2.96;72.87
49709;BME280;35601;55.902;13.606;2023-02-28T00:21:34;102315.95;;;-3.20;72.91
49709;BME280;35601;55.902;13.606;2023-02-28T00:24:00;102318.35;;;-2.94;72.96
49709;BME280;35601;55.902;13.606;2023-02-28T00:26:25;102316.12;;;-2.89;72.87
49709;BME280;35601;55.902;13.606;2023-02-28T00:28:52;102322.20;;;-3.29;73.79
49709;BME280;35601;55.902;13.606;2023-02-28T00:31:16;102321.25;;;-3.40;74.17
49709;BME280;35601;55.902;13.606;2023-02-28T00:33:41;102319.63;;;-3.41;74.22
49709;BME280;35601;55.902;13.606;2023-02-28T00:36:09;102316.07;;;-3.18;73.73
49709;BME280;35601;55.902;13.606;2023-02-28T00:38:32;102320.76;;;-3.08;73.23
49709;BME280;35601;55.902;13.606;2023-02-28T00:40:57;102325.72;;;-3.09;72.79
49709;BME280;35601;55.902;13.606;2023-02-28T00:43:23;102323.14;;;-3.03;72.66
49709;BME280;35601;55.902;13.606;2023-02-28T00:45:48;102322.14;;;-2.78;72.09
49709;BME280;35601;55.902;13.606;2023-02-28T00:48:14;102325.96;;;-3.03;71.29
49709;BME280;35601;55.902;13.606;2023-02-28T00:50:39;102324.45;;;-3.10;70.97
49709;BME280;35601;55.902;13.606;2023-02-28T00:53:04;102322.19;;;-3.39;70.83
49709;BME280;35601;55.902;13.606;2023-02-28T00:55:30;102320.44;;;-3.21;70.58
49709;BME280;35601;55.902;13.606;2023-02-28T00:57:55;102322.60;;;-3.44;71.09
49709;BME280;35601;55.902;13.606;2023-02-28T01:00:21;102323.83;;;-3.50;71.04
49709;BME280;35601;55.902;13.606;2023-02-28T01:02:46;102323.39;;;-3.51;71.26
49709;BME280;35601;55.902;13.606;2023-02-28T01:05:11;102321.88;;;-3.33;71.86
49709;BME280;35601;55.902;13.606;2023-02-28T01:07:37;102326.32;;;-3.84;72.73
49709;BME280;35601;55.902;13.606;2023-02-28T01:10:03;102330.48;;;-3.76;74.02
49709;BME280;35601;55.902;13.606;2023-02-28T01:12:28;102329.41;;;-3.69;73.67
49709;BME280;35601;55.902;13.606;2023-02-28T01:14:53;102327.74;;;-3.55;73.41
49709;BME280;35601;55.902;13.606;2023-02-28T01:17:21;102329.76;;;-3.52;73.11
49709;BME280;35601;55.902;13.606;2023-02-28T01:19:44;102329.02;;;-3.48;72.93
49709;BME280;35601;55.902;13.606;2023-02-28T01:22:09;102330.77;;;-3.50;72.98
49709;BME280;35601;55.902;13.606;2023-02-28T01:24:35;102332.71;;;-3.48;72.84
49709;BME280;35601;55.902;13.606;2023-02-28T01:27:00;102337.06;;;-3.41;72.37
49709;BME280;35601;55.902;13.606;2023-02-28T01:29:26;102336.35;;;-3.47;71.82
49709;BME280;35601;55.902;13.606;2023-02-28T01:31:51;102337.30;;;-3.77;71.75
49709;BME280;35601;55.902;13.606;2023-02-28T01:34:17;102339.72;;;-3.88;72.77
49709;BME280;35601;55.902;13.606;2023-02-28T01:36:42;102340.13;;;-4.11;73.69
49709;BME280;35601;55.902;13.606;2023-02-28T01:39:08;102337.81;;;-3.95;73.68
49709;BME280;35601;55.902;13.606;2023-02-28T01:41:34;102332.16;;;-3.81;72.80
49709;BME280;35601;55.902;13.606;2023-02-28T01:44:02;102328.57;;;-3.82;72.27
49709;BME280;35601;55.902;13.606;2023-02-28T01:46:24;102330.41;;;-3.98;73.21
49709;BME280;35601;55.902;13.606;2023-02-28T01:48:52;102328.31;;;-4.27;74.58
49709;BME280;35601;55.902;13.606;2023-02-28T01:51:19;102323.90;;;-4.45;75.45
49709;BME280;35601;55.902;13.606;2023-02-28T01:53:44;102319.79;;;-3.97;75.85
49709;BME280;35601;55.902;13.606;2023-02-28T01:56:07;102321.94;;;-4.16;75.19
49709;BME280;35601;55.902;13.606;2023-02-28T01:58:31;102320.09;;;-4.10;74.11
49709;BME280;35601;55.902;13.606;2023-02-28T02:00:56;102320.97;;;-4.46;74.78
49709;BME280;35601;55.902;13.606;2023-02-28T02:03:23;102320.42;;;-4.44;75.52
49709;BME280;35601;55.902;13.606;2023-02-28T02:05:47;102316.13;;;-4.58;75.84
49709;BME280;35601;55.902;13.606;2023-02-28T02:08:16;102312.73;;;-4.62;76.14
49709;BME280;35601;55.902;13.606;2023-02-28T02:10:41;102308.74;;;-4.72;75.97
49709;BME280;35601;55.902;13.606;2023-02-28T02:13:20;102303.83;;;-4.46;75.10
49709;BME280;35601;55.902;13.606;2023-02-28T02:15:34;102300.76;;;-4.11;74.44
49709;BME280;35601;55.902;13.606;2023-02-28T02:17:57;102296.47;;;-4.28;73.97
49709;BME280;35601;55.902;13.606;2023-02-28T02:20:41;102292.40;;;-4.01;73.38
49709;BME280;35601;55.902;13.606;2023-02-28T02:25:21;102287.57;;;-4.46;73.36
49709;BME280;35601;55.902;13.606;2023-02-28T02:27:48;102286.44;;;-4.48;73.56
49709;BME280;35601;55.902;13.606;2023-02-28T02:30:18;102289.21;;;-4.56;74.12
49709;BME280;35601;55.902;13.606;2023-02-28T02:34:59;102289.81;;;-3.87;73.33
49709;BME280;35601;55.902;13.606;2023-02-28T02:37:28;102288.93;;;-4.73;74.20
49709;BME280;35601;55.902;13.606;2023-02-28T02:39:50;102288.20;;;-4.65;75.04
49709;BME280;35601;55.902;13.606;2023-02-28T02:42:14;102287.54;;;-4.16;74.48
49709;BME280;35601;55.902;13.606;2023-02-28T02:44:39;102292.32;;;-4.55;74.25
49709;BME280;35601;55.902;13.606;2023-02-28T02:47:05;102289.53;;;-4.47;73.72
49709;BME280;35601;55.902;13.606;2023-02-28T02:49:30;102283.04;;;-4.46;73.03
49709;BME280;35601;55.902;13.606;2023-02-28T02:51:53;102279.14;;;-3.96;72.69
49709;BME280;35601;55.902;13.606;2023-02-28T02:54:21;102277.84;;;-4.47;72.20
49709;BME280;35601;55.902;13.606;2023-02-28T02:56:43;102285.69;;;-4.06;71.76
49709;BME280;35601;55.902;13.606;2023-02-28T02:59:12;102290.93;;;-4.71;72.72
49709;BME280;35601;55.902;13.606;2023-02-28T03:01:33;102291.29;;;-4.86;73.89
49709;BME280;35601;55.902;13.606;2023-02-28T03:04:01;102287.76;;;-5.11;73.40
49709;BME280;35601;55.902;13.606;2023-02-28T03:06:23;102287.54;;;-4.70;74.00
49709;BME280;35601;55.902;13.606;2023-02-28T03:08:49;102289.15;;;-4.77;74.48
49709;BME280;35601;55.902;13.606;2023-02-28T03:11:14;102286.97;;;-4.64;74.34
49709;BME280;35601;55.902;13.606;2023-02-28T03:13:57;102286.94;;;-4.60;74.39
49709;BME280;35601;55.902;13.606;2023-02-28T03:18:36;102289.73;;;-4.69;73.95
49709;BME280;35601;55.902;13.606;2023-02-28T03:21:01;102288.04;;;-4.35;73.64
49709;BME280;35601;55.902;13.606;2023-02-28T03:23:27;102286.92;;;-4.33;73.24
49709;BME280;35601;55.902;13.606;2023-02-28T03:25:56;102286.40;;;-4.61;72.71
49709;BME280;35601;55.902;13.606;2023-02-28T03:28:18;102285.18;;;-4.35;72.70
49709;BME280;35601;55.902;13.606;2023-02-28T03:30:45;102286.40;;;-4.40;72.86
49709;BME280;35601;55.902;13.606;2023-02-28T03:33:08;102287.03;;;-4.39;73.01
49709;BME280;35601;55.902;13.606;2023-02-28T03:35:32;102286.90;;;-4.36;72.89
49709;BME280;35601;55.902;13.606;2023-02-28T03:38:03;102283.16;;;-4.33;72.82
49709;BME280;35601;55.902;13.606;2023-02-28T03:40:23;102282.46;;;-4.35;72.72
49709;BME280;35601;55.902;13.606;2023-02-28T03:42:48;102283.81;;;-4.74;73.13
49709;BME280;35601;55.902;13.606;2023-02-28T03:45:13;102283.46;;;-4.72;73.18
49709;BME280;35601;55.902;13.606;2023-02-28T03:47:41;102277.88;;;-4.36;72.78
49709;BME280;35601;55.902;13.606;2023-02-28T03:50:07;102278.37;;;-4.45;72.70
49709;BME280;35601;55.902;13.606;2023-02-28T03:52:30;102282.52;;;-4.92;74.00
49709;BME280;35601;55.902;13.606;2023-02-28T03:54:55;102282.13;;;-5.05;74.42
49709;BME280;35601;55.902;13.606;2023-02-28T03:57:26;102280.00;;;-5.22;74.79
49709;BME280;35601;55.902;13.606;2023-02-28T03:59:46;102276.94;;;-5.02;75.20
49709;BME280;35601;55.902;13.606;2023-02-28T04:02:10;102278.26;;;-4.95;74.36
49709;BME280;35601;55.902;13.606;2023-02-28T04:04:35;102278.69;;;-5.00;74.41
49709;BME280;35601;55.902;13.606;2023-02-28T04:07:03;102279.34;;;-5.10;74.72
49709;BME280;35601;55.902;13.606;2023-02-28T04:09:27;102277.78;;;-5.02;74.58
49709;BME280;35601;55.902;13.606;2023-02-28T04:11:53;102276.88;;;-4.89;74.14
49709;BME280;35601;55.902;13.606;2023-02-28T04:14:16;102282.64;;;-4.86;74.03
49709;BME280;35601;55.902;13.606;2023-02-28T04:16:42;102282.47;;;-4.78;73.59
49709;BME280;35601;55.902;13.606;2023-02-28T04:19:10;102283.27;;;-4.79;73.48
49709;BME280;35601;55.902;13.606;2023-02-28T04:21:35;102286.63;;;-4.81;73.52
49709;BME280;35601;55.902;13.606;2023-02-28T04:23:58;102287.38;;;-4.74;73.15
49709;BME280;35601;55.902;13.606;2023-02-28T04:26:25;102290.58;;;-4.75;72.89
49709;BME280;35601;55.902;13.606;2023-02-28T04:28:49;102288.22;;;-4.74;72.27
49709;BME280;35601;55.902;13.606;2023-02-28T04:31:14;102284.38;;;-4.74;72.11
49709;BME280;35601;55.902;13.606;2023-02-28T04:33:41;102285.66;;;-4.52;71.75
49709;BME280;35601;55.902;13.606;2023-02-28T04:36:07;102285.34;;;-4.82;71.66
49709;BME280;35601;55.902;13.606;2023-02-28T04:38:33;102287.19;;;-4.82;71.92
49709;BME280;35601;55.902;13.606;2023-02-28T04:40:58;102288.00;;;-4.80;71.72
49709;BME280;35601;55.902;13.606;2023-02-28T04:43:23;102290.12;;;-4.80;71.69
49709;BME280;35601;55.902;13.606;2023-02-28T04:45:48;102292.92;;;-4.83;71.70
49709;BME280;35601;55.902;13.606;2023-02-28T04:48:13;102302.30;;;-4.86;71.64
49709;BME280;35601;55.902;13.606;2023-02-28T04:50:38;102302.99;;;-4.86;71.53
49709;BME280;35601;55.902;13.606;2023-02-28T04:53:05;102301.62;;;-4.88;71.78
49709;BME280;35601;55.902;13.606;2023-02-28T04:55:30;102302.18;;;-4.89;71.42
49709;BME280;35601;55.902;13.606;2023-02-28T04:57:55;102303.52;;;-4.96;71.73
49709;BME280;35601;55.902;13.606;2023-02-28T05:00:21;102305.82;;;-5.06;72.14
49709;BME280;35601;55.902;13.606;2023-02-28T05:02:46;102308.00;;;-5.02;72.17
49709;BME280;35601;55.902;13.606;2023-02-28T05:05:11;102308.83;;;-5.01;72.20
49709;BME280;35601;55.902;13.606;2023-02-28T05:07:38;102311.52;;;-4.99;72.07
49709;BME280;35601;55.902;13.606;2023-02-28T05:10:03;102309.51;;;-4.97;72.03
49709;BME280;35601;55.902;13.606;2023-02-28T05:12:27;102307.50;;;-4.96;72.19
49709;BME280;35601;55.902;13.606;2023-02-28T05:14:53;102302.89;;;-4.97;71.95
49709;BME280;35601;55.902;13.606;2023-02-28T05:17:18;102304.74;;;-4.72;71.97
49709;BME280;35601;55.902;13.606;2023-02-28T05:19:45;102300.09;;;-5.44;71.83
49709;BME280;35601;55.902;13.606;2023-02-28T05:22:14;102298.03;;;-5.35;71.02
49709;BME280;35601;55.902;13.606;2023-02-28T05:24:35;102298.20;;;-4.88;70.73
49709;BME280;35601;55.902;13.606;2023-02-28T05:27:00;102294.54;;;-4.96;70.44
49709;BME280;35601;55.902;13.606;2023-02-28T05:29:25;102290.88;;;-5.03;70.31
49709;BME280;35601;55.902;13.606;2023-02-28T05:31:51;102286.74;;;-5.16;70.32
49709;BME280;35601;55.902;13.606;2023-02-28T05:34:18;102287.81;;;-5.24;70.72
49709;BME280;35601;55.902;13.606;2023-02-28T05:36:42;102290.88;;;-5.08;71.34
49709;BME280;35601;55.902;13.606;2023-02-28T05:39:08;102290.80;;;-4.82;71.42
49709;BME280;35601;55.902;13.606;2023-02-28T05:41:34;102294.84;;;-5.08;71.24
49709;BME280;35601;55.902;13.606;2023-02-28T05:43:59;102295.59;;;-5.18;71.96
49709;BME280;35601;55.902;13.606;2023-02-28T05:46:25;102291.02;;;-5.38;72.15
49709;BME280;35601;55.902;13.606;2023-02-28T05:48:50;102289.36;;;-4.88;71.66
49709;BME280;35601;55.902;13.606;2023-02-28T05:51:15;102294.55;;;-4.88;71.50
49709;BME280;35601;55.902;13.606;2023-02-28T05:53:42;102295.84;;;-5.13;71.66
49709;BME280;35601;55.902;13.606;2023-02-28T05:56:06;102288.27;;;-5.13;71.47
49709;BME280;35601;55.902;13.606;2023-02-28T05:58:31;102287.29;;;-5.16;71.21
49709;BME280;35601;55.902;13.606;2023-02-28T06:00:56;102285.46;;;-4.94;71.10
49709;BME280;35601;55.902;13.606;2023-02-28T06:03:23;102281.91;;;-5.22;71.43
49709;BME280;35601;55.902;13.606;2023-02-28T06:05:48;102283.75;;;-5.28;72.12
49709;BME280;35601;55.902;13.606;2023-02-28T06:08:15;102285.86;;;-5.29;72.60
49709;BME280;35601;55.902;13.606;2023-02-28T06:10:38;102283.72;;;-5.19;72.40
49709;BME280;35601;55.902;13.606;2023-02-28T06:13:05;102286.92;;;-5.22;72.61
49709;BME280;35601;55.902;13.606;2023-02-28T06:15:30;102289.42;;;-5.17;72.80
49709;BME280;35601;55.902;13.606;2023-02-28T06:17:55;102297.59;;;-5.24;73.34
49709;BME280;35601;55.902;13.606;2023-02-28T06:20:23;102301.45;;;-5.29;74.50
49709;BME280;35601;55.902;13.606;2023-02-28T06:22:48;102302.65;;;-5.44;75.46
49709;BME280;35601;55.902;13.606;2023-02-28T06:25:13;102306.22;;;-5.67;75.92
49709;BME280;35601;55.902;13.606;2023-02-28T06:27:38;102309.28;;;-5.34;76.44
49709;BME280;35601;55.902;13.606;2023-02-28T06:30:02;102314.23;;;-5.11;76.26
49709;BME280;35601;55.902;13.606;2023-02-28T06:32:27;102313.59;;;-5.16;75.80
49709;BME280;35601;55.902;13.606;2023-02-28T06:34:53;102313.66;;;-5.05;75.47
49709;BME280;35601;55.902;13.606;2023-02-28T06:37:19;102312.82;;;-4.90;75.22
49709;BME280;35601;55.902;13.606;2023-02-28T06:39:45;102318.36;;;-4.80;75.17
49709;BME280;35601;55.902;13.606;2023-02-28T06:42:10;102315.58;;;-4.95;75.16
49709;BME280;35601;55.902;13.606;2023-02-28T06:44:36;102314.73;;;-4.98;75.90
49709;BME280;35601;55.902;13.606;2023-02-28T06:47:01;102312.59;;;-4.85;75.87
49709;BME280;35601;55.902;13.606;2023-02-28T06:49:27;102321.64;;;-4.76;75.86
49709;BME280;35601;55.902;13.606;2023-02-28T06:51:51;102328.02;;;-4.63;76.19
49709;BME280;35601;55.902;13.606;2023-02-28T06:54:16;102330.21;;;-4.83;77.00
49709;BME280;35601;55.902;13.606;2023-02-28T06:56:42;102325.70;;;-4.37;76.94
49709;BME280;35601;55.902;13.606;2023-02-28T06:59:07;102320.29;;;-4.18;76.89
49709;BME280;35601;55.902;13.606;2023-02-28T07:01:33;102317.00;;;-4.30;77.04
49709;BME280;35601;55.902;13.606;2023-02-28T07:03:59;102322.07;;;-4.32;78.29
49709;BME280;35601;55.902;13.606;2023-02-28T07:06:26;102324.61;;;-4.02;79.16
49709;BME280;35601;55.902;13.606;2023-02-28T07:08:50;102326.03;;;-3.99;80.29
49709;BME280;35601;55.902;13.606;2023-02-28T07:11:15;102327.41;;;-4.01;80.63
49709;BME280;35601;55.902;13.606;2023-02-28T07:13:40;102328.61;;;-3.74;81.16
49709;BME280;35601;55.902;13.606;2023-02-28T07:16:09;102327.75;;;-3.94;81.26
49709;BME280;35601;55.902;13.606;2023-02-28T07:18:31;102323.99;;;-3.68;80.65
49709;BME280;35601;55.902;13.606;2023-02-28T07:20:56;102319.52;;;-2.94;80.53
49709;BME280;35601;55.902;13.606;2023-02-28T07:23:23;102316.63;;;-3.22;80.33
49709;BME280;35601;55.902;13.606;2023-02-28T07:25:47;102313.85;;;-3.05;80.54
49709;BME280;35601;55.902;13.606;2023-02-28T07:28:14;102313.93;;;-3.16;80.76
49709;BME280;35601;55.902;13.606;2023-02-28T07:30:37;102312.69;;;-3.10;81.36
49709;BME280;35601;55.902;13.606;2023-02-28T07:33:02;102314.72;;;-2.81;80.76
49709;BME280;35601;55.902;13.606;2023-02-28T07:35:29;102315.51;;;-2.67;80.87
49709;BME280;35601;55.902;13.606;2023-02-28T07:37:53;102315.13;;;-2.63;81.22
49709;BME280;35601;55.902;13.606;2023-02-28T07:40:19;102309.86;;;-2.53;80.74
49709;BME280;35601;55.902;13.606;2023-02-28T07:42:44;102309.26;;;-2.31;80.41
49709;BME280;35601;55.902;13.606;2023-02-28T07:45:11;102312.55;;;-2.18;80.63
49709;BME280;35601;55.902;13.606;2023-02-28T07:47:35;102312.74;;;-2.19;81.10
49709;BME280;35601;55.902;13.606;2023-02-28T07:50:01;102315.73;;;-2.20;81.76
49709;BME280;35601;55.902;13.606;2023-02-28T07:52:26;102318.65;;;-2.17;81.31
49709;BME280;35601;55.902;13.606;2023-02-28T07:54:52;102323.19;;;-1.94;80.85
49709;BME280;35601;55.902;13.606;2023-02-28T07:57:17;102325.59;;;-1.61;80.98
49709;BME280;35601;55.902;13.606;2023-02-28T07:59:42;102325.23;;;-1.90;80.68
49709;BME280;35601;55.902;13.606;2023-02-28T08:02:10;102326.36;;;-2.11;81.05
49709;BME280;35601;55.902;13.606;2023-02-28T08:04:34;102325.27;;;-1.56;81.69
49709;BME280;35601;55.902;13.606;2023-02-28T08:06:59;102328.16;;;-1.90;81.60
49709;BME280;35601;55.902;13.606;2023-02-28T08:09:26;102327.69;;;-1.75;81.81
49709;BME280;35601;55.902;13.606;2023-02-28T08:11:49;102327.01;;;-1.55;81.31
49709;BME280;35601;55.902;13.606;2023-02-28T08:14:15;102329.63;;;-1.62;81.57
49709;BME280;35601;55.902;13.606;2023-02-28T08:16:41;102331.91;;;-1.47;81.87
49709;BME280;35601;55.902;13.606;2023-02-28T08:19:06;102333.16;;;-1.50;81.72
49709;BME280;35601;55.902;13.606;2023-02-28T08:21:33;102333.91;;;-1.64;82.12
49709;BME280;35601;55.902;13.606;2023-02-28T08:23:57;102332.35;;;-1.18;81.63
49709;BME280;35601;55.902;13.606;2023-02-28T08:26:22;102332.85;;;-1.12;81.24
49709;BME280;35601;55.902;13.606;2023-02-28T08:28:48;102331.99;;;-0.86;80.87
49709;BME280;35601;55.902;13.606;2023-02-28T08:31:15;102337.02;;;-1.36;81.88
49709;BME280;35601;55.902;13.606;2023-02-28T08:33:38;102338.09;;;-1.22;81.94
49709;BME280;35601;55.902;13.606;2023-02-28T08:36:04;102336.60;;;-1.30;82.42
49709;BME280;35601;55.902;13.606;2023-02-28T08:38:29;102335.58;;;-1.32;82.50
49709;BME280;35601;55.902;13.606;2023-02-28T08:40:59;102335.29;;;-1.08;81.88
49709;BME280;35601;55.902;13.606;2023-02-28T08:43:20;102334.59;;;-1.21;82.41
49709;BME280;35601;55.902;13.606;2023-02-28T08:45:46;102329.34;;;-1.13;82.09
49709;BME280;35601;55.902;13.606;2023-02-28T08:48:11;102329.79;;;-1.18;80.89
49709;BME280;35601;55.902;13.606;2023-02-28T08:50:37;102327.34;;;-0.64;81.75
49709;BME280;35601;55.902;13.606;2023-02-28T08:53:02;102331.94;;;-0.50;81.04
49709;BME280;35601;55.902;13.606;2023-02-28T08:55:27;102331.76;;;-0.43;79.97
49709;BME280;35601;55.902;13.606;2023-02-28T08:57:53;102337.19;;;-0.85;79.34
49709;BME280;35601;55.902;13.606;2023-02-28T09:00:19;102337.71;;;-0.48;79.25
49709;BME280;35601;55.902;13.606;2023-02-28T09:02:43;102339.94;;;-0.35;79.96
49709;BME280;35601;55.902;13.606;2023-02-28T09:05:10;102342.56;;;-0.44;80.79
49709;BME280;35601;55.902;13.606;2023-02-28T09:07:34;102340.62;;;-0.35;81.93
49709;BME280;35601;55.902;13.606;2023-02-28T09:09:59;102339.13;;;-0.80;82.52
49709;BME280;35601;55.902;13.606;2023-02-28T09:12:26;102340.34;;;-0.94;83.99
49709;BME280;35601;55.902;13.606;2023-02-28T09:14:51;102341.08;;;-0.98;84.21
49709;BME280;35601;55.902;13.606;2023-02-28T09:17:16;102348.09;;;-0.93;83.78
49709;BME280;35601;55.902;13.606;2023-02-28T09:19:41;102350.46;;;-0.90;83.72
49709;BME280;35601;55.902;13.606;2023-02-28T09:22:06;102348.45;;;-1.12;84.69
49709;BME280;35601;55.902;13.606;2023-02-28T09:24:32;102347.64;;;-0.91;84.89
49709;BME280;35601;55.902;13.606;2023-02-28T09:26:58;102347.35;;;-1.04;85.53
49709;BME280;35601;55.902;13.606;2023-02-28T09:29:23;102352.79;;;-1.11;85.43
49709;BME280;35601;55.902;13.606;2023-02-28T09:31:48;102353.82;;;-1.13;85.55
49709;BME280;35601;55.902;13.606;2023-02-28T09:34:14;102355.42;;;-1.22;84.78
49709;BME280;35601;55.902;13.606;2023-02-28T09:36:39;102359.01;;;-1.09;85.23
49709;BME280;35601;55.902;13.606;2023-02-28T09:39:05;102361.31;;;-0.94;85.33
49709;BME280;35601;55.902;13.606;2023-02-28T09:41:37;102361.42;;;-0.89;85.62
49709;BME280;35601;55.902;13.606;2023-02-28T09:43:59;102361.43;;;-0.78;84.91
49709;BME280;35601;55.902;13.606;2023-02-28T09:46:29;102363.31;;;-0.96;85.82
49709;BME280;35601;55.902;13.606;2023-02-28T09:48:48;102364.03;;;-1.28;87.09
49709;BME280;35601;55.902;13.606;2023-02-28T09:53:38;102360.46;;;-1.07;87.35
49709;BME280;35601;55.902;13.606;2023-02-28T09:56:07;102351.21;;;-0.93;86.04
49709;BME280;35601;55.902;13.606;2023-02-28T09:58:33;102348.97;;;-0.55;85.18
49709;BME280;35601;55.902;13.606;2023-02-28T10:01:02;102350.22;;;-0.37;84.98
49709;BME280;35601;55.902;13.606;2023-02-28T10:03:29;102344.92;;;-0.56;86.21
49709;BME280;35601;55.902;13.606;2023-02-28T10:05:52;102345.19;;;-0.45;86.62
49709;BME280;35601;55.902;13.606;2023-02-28T10:08:14;102345.09;;;-0.40;86.83
49709;BME280;35601;55.902;13.606;2023-02-28T10:10:40;102343.33;;;-0.47;88.19
49709;BME280;35601;55.902;13.606;2023-02-28T10:13:04;102343.42;;;-0.48;87.69
49709;BME280;35601;55.902;13.606;2023-02-28T10:15:31;102340.11;;;-0.58;87.19
49709;BME280;35601;55.902;13.606;2023-02-28T10:17:55;102342.15;;;-0.60;86.67
49709;BME280;35601;55.902;13.606;2023-02-28T10:20:20;102347.89;;;-0.11;85.45
49709;BME280;35601;55.902;13.606;2023-02-28T10:22:50;102342.91;;;-0.22;85.94
49709;BME280;35601;55.902;13.606;2023-02-28T10:25:17;102340.59;;;-0.28;87.02
49709;BME280;35601;55.902;13.606;2023-02-28T10:27:35;102333.32;;;0.05;87.69
49709;BME280;35601;55.902;13.606;2023-02-28T10:30:01;102330.47;;;0.19;87.58
49709;BME280;35601;55.902;13.606;2023-02-28T10:32:28;102327.46;;;0.43;86.88
49709;BME280;35601;55.902;13.606;2023-02-28T10:34:52;102330.52;;;0.59;85.55
49709;BME280;35601;55.902;13.606;2023-02-28T10:37:17;102328.26;;;0.86;83.16
49709;BME280;35601;55.902;13.606;2023-02-28T10:39:44;102322.36;;;0.93;81.33
49709;BME280;35601;55.902;13.606;2023-02-28T10:42:18;102321.29;;;1.15;80.11
49709;BME280;35601;55.902;13.606;2023-02-28T10:44:34;102322.31;;;1.37;78.67
49709;BME280;35601;55.902;13.606;2023-02-28T10:46:59;102324.42;;;1.29;77.92
49709;BME280;35601;55.902;13.606;2023-02-28T10:49:26;102323.72;;;1.21;78.45
49709;BME280;35601;55.902;13.606;2023-02-28T10:51:54;102322.70;;;0.89;79.70
49709;BME280;35601;55.902;13.606;2023-02-28T10:54:18;102321.12;;;1.35;80.57
49709;BME280;35601;55.902;13.606;2023-02-28T10:56:42;102317.23;;;1.22;79.68
49709;BME280;35601;55.902;13.606;2023-02-28T10:59:23;102315.36;;;1.27;80.40
49709;BME280;35601;55.902;13.606;2023-02-28T11:01:38;102315.49;;;1.44;79.86
49709;BME280;35601;55.902;13.606;2023-02-28T11:03:58;102312.84;;;1.88;77.77
49709;BME280;35601;55.902;13.606;2023-02-28T11:06:25;102311.73;;;2.33;76.65
49709;BME280;35601;55.902;13.606;2023-02-28T11:08:51;102308.55;;;2.57;77.60
49709;BME280;35601;55.902;13.606;2023-02-28T11:11:15;102306.64;;;2.85;75.69
49709;BME280;35601;55.902;13.606;2023-02-28T11:13:40;102307.98;;;3.15;72.70
49709;BME280;35601;55.902;13.606;2023-02-28T11:16:07;102313.70;;;3.50;71.78
49709;BME280;35601;55.902;13.606;2023-02-28T11:18:39;102313.75;;;4.10;70.68
49709;BME280;35601;55.902;13.606;2023-02-28T11:20:59;102313.56;;;4.20;68.69
49709;BME280;35601;55.902;13.606;2023-02-28T11:23:25;102310.22;;;4.25;66.95
49709;BME280;35601;55.902;13.606;2023-02-28T11:25:49;102304.45;;;4.59;66.37
49709;BME280;35601;55.902;13.606;2023-02-28T11:28:24;102303.18;;;4.99;64.93
49709;BME280;35601;55.902;13.606;2023-02-28T11:30:40;102302.66;;;4.94;65.07
49709;BME280;35601;55.902;13.606;2023-02-28T11:33:21;102300.91;;;5.37;64.56
49709;BME280;35601;55.902;13.606;2023-02-28T11:35:31;102299.58;;;5.21;63.36
49709;BME280;35601;55.902;13.606;2023-02-28T11:37:55;102296.79;;;5.31;62.26
49709;BME280;35601;55.902;13.606;2023-02-28T11:40:26;102295.74;;;5.25;62.73
49709;BME280;35601;55.902;13.606;2023-02-28T11:42:54;102295.52;;;5.21;61.19
49709;BME280;35601;55.902;13.606;2023-02-28T11:45:21;102288.31;;;5.68;60.13
49709;BME280;35601;55.902;13.606;2023-02-28T11:47:43;102289.19;;;5.53;60.94
49709;BME280;35601;55.902;13.606;2023-02-28T11:50:14;102286.24;;;6.03;61.52
49709;BME280;35601;55.902;13.606;2023-02-28T11:52:35;102280.51;;;5.93;60.09
49709;BME280;35601;55.902;13.606;2023-02-28T11:55:02;102270.38;;;6.06;58.99
49709;BME280;35601;55.902;13.606;2023-02-28T11:57:33;102265.88;;;6.12;58.85
49709;BME280;35601;55.902;13.606;2023-02-28T11:59:56;102259.26;;;6.21;58.99
49709;BME280;35601;55.902;13.606;2023-02-28T12:02:20;102253.28;;;6.48;57.33
49709;BME280;35601;55.902;13.606;2023-02-28T12:04:42;102247.81;;;6.38;57.37
49709;BME280;35601;55.902;13.606;2023-02-28T12:07:08;102246.24;;;6.38;57.21
49709;BME280;35601;55.902;13.606;2023-02-28T12:09:39;102241.23;;;6.55;57.84
49709;BME280;35601;55.902;13.606;2023-02-28T12:11:57;102234.45;;;6.58;58.95
49709;BME280;35601;55.902;13.606;2023-02-28T12:14:30;102231.94;;;6.68;58.11
49709;BME280;35601;55.902;13.606;2023-02-28T12:16:53;102228.18;;;6.80;57.61
49709;BME280;35601;55.902;13.606;2023-02-28T12:19:19;102217.46;;;6.39;57.41
49709;BME280;35601;55.902;13.606;2023-02-28T12:21:48;102208.15;;;6.25;57.66
49709;BME280;35601;55.902;13.606;2023-02-28T12:24:12;102211.15;;;6.32;57.69
49709;BME280;35601;55.902;13.606;2023-02-28T12:26:34;102205.17;;;6.43;57.31
49709;BME280;35601;55.902;13.606;2023-02-28T12:28:54;102207.09;;;6.17;58.92
49709;BME280;35601;55.902;13.606;2023-02-28T12:31:19;102203.36;;;5.88;58.63
49709;BME280;35601;55.902;13.606;2023-02-28T12:33:45;102196.58;;;6.37;59.44
49709;BME280;35601;55.902;13.606;2023-02-28T12:36:11;102197.77;;;6.12;60.25
49709;BME280;35601;55.902;13.606;2023-02-28T12:38:37;102205.68;;;6.27;60.99
49709;BME280;35601;55.902;13.606;2023-02-28T12:41:00;102204.72;;;5.98;60.06
49709;BME280;35601;55.902;13.606;2023-02-28T12:43:30;102198.48;;;6.27;60.87